Other Surface Observations
Issued by NWS Great Falls, MT

Home | Current Version | Previous Version | Text Only | Print | Product List | Glossary On
Versions: 1 2 3 4 5 6 7 8 9 10 11 12 13 14 15 16 17 18 19 20 21 22 23 24 25 26 27 28 29 30 31 32 33 34 35 36 37 38 39 40 41 42 43 44 45 46 47 48 49 50
000
SXUS55 KTFX 250429
OSOTFX
AREA AWOS OBSERVATIONS
NATIONAL WEATHER SERVICE GREAT FALLS MT
1029 PM MDT FRI MAR 24 2017

METAR KPWD 250430Z AUTO 13015G19KT 10SM 06/02 A2992 RMK PLENTYWOOD
METAR KPO1 250430Z AUTO 13012KT 1 3/4SM 10/00 A2987 RMK POPLAR
METAR K1S3 250430Z AUTO 00000KT 10SM 11/01 A2980 RMK FORSYTH
METAR KS71 250430Z AUTO 15003KT 10SM 13/M02 A2966 RMK CHINOOK
METAR K79S 250430Z AUTO 36014KT 10SM 13/M02 A2977 RMK FORT BENTON
METAR K38S 250430Z AUTO 12003KT 10SM 07/01 A2992 RMK DEER LODGE
METAR K3U3 250430Z AUTO 16006KT 10SM 05/02 A2990 RMK ANACONDA
METAR K6S5 250430Z AUTO 20003KT 9SM 07/03 A2994 RMK HAMILTON
METAR K88M 250430Z AUTO 14008KT 10SM 07/02 A2984 RMK EUREKA



USA.gov is the U.S. government's official web portal to all federal, state and local government web resources and services.